createdAt,value
2022-09-23T00:01:44.546Z,1.03
2022-09-23T00:04:16.501Z,1.20
2022-09-23T00:07:06.541Z,0.80
2022-09-23T00:09:37.525Z,1.33
2022-09-23T00:12:09.152Z,0.90
2022-09-23T00:14:42.800Z,1.20
2022-09-23T00:17:16.688Z,1.00
2022-09-23T00:19:51.222Z,0.90
2022-09-23T00:22:23.595Z,1.30
2022-09-23T00:24:53.879Z,1.20
2022-09-23T00:27:23.609Z,1.00
2022-09-23T00:29:50.747Z,1.30
2022-09-23T00:32:22.543Z,1.00
2022-09-23T00:35:05.611Z,1.20
2022-09-23T00:37:40.091Z,1.07
2022-09-23T00:40:17.805Z,1.00
2022-09-23T00:42:55.531Z,1.00
2022-09-23T00:45:25.283Z,1.53
2022-09-23T00:47:57.362Z,1.00
2022-09-23T00:50:47.182Z,1.00
2022-09-23T00:53:21.363Z,1.17
2022-09-23T00:56:04.022Z,1.27
2022-09-23T00:58:42.064Z,1.20
2022-09-23T01:01:15.128Z,0.97
2022-09-23T01:03:49.782Z,1.00
2022-09-23T01:06:26.277Z,1.20
2022-09-23T01:08:59.344Z,1.40
2022-09-23T01:11:48.785Z,1.40
2022-09-23T01:14:27.254Z,1.20
2022-09-23T01:17:13.534Z,1.20
2022-09-23T01:19:51.660Z,1.27
2022-09-23T01:22:39.470Z,1.40
2022-09-23T01:25:28.102Z,1.17
2022-09-23T01:28:08.744Z,1.23
2022-09-23T01:30:55.587Z,1.50
2022-09-23T01:36:45.200Z,1.30
2022-09-23T01:39:39.272Z,1.60
2022-09-23T01:42:32.719Z,1.30
2022-09-23T01:45:15.347Z,1.23
2022-09-23T01:47:56.065Z,1.17
2022-09-23T01:50:53.375Z,1.23
2022-09-23T01:53:28.593Z,1.40
2022-09-23T01:56:11.506Z,1.40
2022-09-23T01:58:47.145Z,1.27
2022-09-23T02:01:21.418Z,1.50
2022-09-23T02:04:01.439Z,1.13
2022-09-23T02:06:42.384Z,1.30
2022-09-23T02:09:18.036Z,1.43
2022-09-23T02:12:08.144Z,1.60
2022-09-23T02:14:49.556Z,1.30
2022-09-23T02:17:29.466Z,1.57
2022-09-23T02:20:04.166Z,1.53
2022-09-23T02:25:37.210Z,1.40
2022-09-23T02:28:16.107Z,1.30
2022-09-23T02:30:58.637Z,1.33
2022-09-23T02:33:44.350Z,1.03
2022-09-23T02:36:31.670Z,1.23
2022-09-23T02:39:06.131Z,1.20
2022-09-23T02:42:05.078Z,1.23
2022-09-23T02:44:36.852Z,1.20
2022-09-23T02:47:07.035Z,1.30
2022-09-23T02:49:39.631Z,1.50
2022-09-23T02:52:10.127Z,1.60
2022-09-23T02:54:40.765Z,1.50
2022-09-23T02:57:12.496Z,1.30
2022-09-23T02:59:46.577Z,1.20
2022-09-23T03:02:37.254Z,1.30
2022-09-23T03:05:22.824Z,1.20
2022-09-23T03:08:11.194Z,1.40
2022-09-23T03:11:06.699Z,1.40
2022-09-23T03:13:56.751Z,1.47
2022-09-23T03:19:41.751Z,1.60
2022-09-23T03:22:14.767Z,1.30
2022-09-23T03:24:50.663Z,1.40
2022-09-23T03:27:29.518Z,1.17
2022-09-23T03:29:59.204Z,1.37
2022-09-23T03:32:28.973Z,1.33
2022-09-23T03:34:59.934Z,1.50
2022-09-23T03:37:43.980Z,1.40
2022-09-23T03:40:20.021Z,1.40
2022-09-23T03:45:38.788Z,1.30
2022-09-23T03:48:12.501Z,1.57
2022-09-23T03:50:41.151Z,1.37
2022-09-23T03:55:58.215Z,1.20
2022-09-23T03:58:28.100Z,1.53
2022-09-23T04:01:01.457Z,1.50
2022-09-23T04:03:32.264Z,1.30
2022-09-23T04:06:08.362Z,1.37
2022-09-23T04:08:40.462Z,1.50
2022-09-23T04:11:11.244Z,1.47
2022-09-23T04:13:42.404Z,1.40
2022-09-23T04:16:11.813Z,1.30
2022-09-23T04:18:41.536Z,1.20
2022-09-23T04:21:15.397Z,1.40
2022-09-23T04:29:14.296Z,1.70
2022-09-23T04:31:44.850Z,1.40
2022-09-23T04:34:18.720Z,1.50
2022-09-23T04:36:49.963Z,1.37
2022-09-23T04:39:21.106Z,1.50
2022-09-23T04:41:51.399Z,1.43
2022-09-23T04:44:23.796Z,1.87
2022-09-23T04:46:53.678Z,1.60
2022-09-23T04:49:24.389Z,1.33
2022-09-23T04:51:58.913Z,1.47
2022-09-23T04:54:29.521Z,1.60
2022-09-23T04:56:59.191Z,1.50
2022-09-23T04:59:31.886Z,1.30
2022-09-23T05:02:07.826Z,1.50
2022-09-23T05:04:40.358Z,1.23
2022-09-23T05:07:07.439Z,1.53
2022-09-23T05:09:38.624Z,1.53
2022-09-23T05:12:06.395Z,1.60
2022-09-23T05:14:35.799Z,1.57
2022-09-23T05:17:08.497Z,1.33
2022-09-23T05:19:39.918Z,2.43
2022-09-23T05:22:10.458Z,2.83
2022-09-23T05:24:58.803Z,5.07
2022-09-23T05:27:27.304Z,5.43
2022-09-23T05:29:55.766Z,5.30
2022-09-23T05:32:25.142Z,6.03
2022-09-23T05:35:03.463Z,5.43
2022-09-23T05:37:38.110Z,6.73
2022-09-23T05:40:09.391Z,5.47
2022-09-23T05:42:44.527Z,5.50
2022-09-23T05:45:15.612Z,4.87
2022-09-23T05:47:50.446Z,5.37
2022-09-23T05:50:22.705Z,5.60
2022-09-23T05:52:54.541Z,5.33
2022-09-23T05:55:26.123Z,5.97
2022-09-23T05:57:58.259Z,4.97
2022-09-23T06:00:29.941Z,4.27
2022-09-23T06:03:03.796Z,4.67
2022-09-23T06:05:37.799Z,4.77
2022-09-23T06:08:06.379Z,4.70
2022-09-23T06:10:38.530Z,4.67
2022-09-23T06:13:10.235Z,4.17
2022-09-23T06:15:42.569Z,3.90
2022-09-23T06:18:13.223Z,3.60
2022-09-23T06:20:44.637Z,3.93
2022-09-23T06:23:16.143Z,4.00
2022-09-23T06:25:47.520Z,3.00
2022-09-23T06:28:18.505Z,3.47
2022-09-23T06:30:52.609Z,4.00
2022-09-23T06:33:34.871Z,4.63
2022-09-23T06:36:12.634Z,4.00
2022-09-23T06:41:31.118Z,4.37
2022-09-23T06:44:03.284Z,4.20
2022-09-23T06:46:37.015Z,3.83
2022-09-23T06:49:05.455Z,3.90
2022-09-23T06:51:41.105Z,3.50
2022-09-23T06:54:11.801Z,3.40
2022-09-23T06:56:44.459Z,3.33
2022-09-23T07:02:06.503Z,2.80
2022-09-23T07:04:39.289Z,3.20
2022-09-23T07:07:14.866Z,2.90
2022-09-23T07:09:42.713Z,2.83
2022-09-23T07:12:13.336Z,2.67
2022-09-23T07:14:44.707Z,2.73
2022-09-23T07:17:17.159Z,2.40
2022-09-23T07:19:47.835Z,3.00
2022-09-23T07:22:18.273Z,2.40
2022-09-23T07:24:46.929Z,2.37
2022-09-23T07:27:23.548Z,2.30
2022-09-23T07:29:57.039Z,2.37
2022-09-23T07:32:28.680Z,2.60
2022-09-23T07:35:04.659Z,2.30
2022-09-23T07:37:36.855Z,2.70
2022-09-23T07:40:16.722Z,2.63
2022-09-23T07:42:53.163Z,2.20
2022-09-23T07:45:23.417Z,2.30
2022-09-23T07:47:59.368Z,2.17
2022-09-23T07:50:30.315Z,2.47
2022-09-23T07:53:05.304Z,1.90
2022-09-23T07:55:36.212Z,2.10
2022-09-23T07:58:10.612Z,1.70
2022-09-23T08:00:45.687Z,2.00
2022-09-23T08:03:16.814Z,2.10
2022-09-23T08:05:48.987Z,2.13
2022-09-23T08:08:18.748Z,1.80
2022-09-23T08:11:03.479Z,2.33
2022-09-23T08:13:35.052Z,2.17
2022-09-23T08:16:02.674Z,1.90
2022-09-23T08:18:34.780Z,2.10
2022-09-23T08:21:04.193Z,1.90
2022-09-23T08:23:33.813Z,2.00
2022-09-23T08:26:08.724Z,2.40
2022-09-23T08:28:43.283Z,1.80
2022-09-23T08:31:13.781Z,1.70
2022-09-23T08:33:43.219Z,1.80
2022-09-23T08:36:14.468Z,1.90
2022-09-23T08:38:59.884Z,1.90
2022-09-23T08:41:45.527Z,1.80
2022-09-23T08:44:34.316Z,1.60
2022-09-23T08:47:18.874Z,1.83
2022-09-23T08:50:06.044Z,1.77
2022-09-23T08:52:56.133Z,1.53
2022-09-23T08:55:31.852Z,1.77
2022-09-23T08:58:25.333Z,2.10
2022-09-23T09:01:07.743Z,1.70
2022-09-23T09:03:54.034Z,1.33
2022-09-23T09:06:53.445Z,1.90
2022-09-23T09:12:20.271Z,1.80
2022-09-23T09:15:04.913Z,1.77
2022-09-23T09:17:39.844Z,1.73
2022-09-23T09:20:36.251Z,2.07
2022-09-23T09:23:10.055Z,1.60
2022-09-23T09:25:43.332Z,1.43
2022-09-23T09:28:25.605Z,1.73
2022-09-23T09:31:02.952Z,2.00
2022-09-23T09:33:37.360Z,1.70
2022-09-23T09:36:25.171Z,1.97
2022-09-23T09:41:40.946Z,1.40
2022-09-23T09:44:19.508Z,1.40
2022-09-23T09:47:12.029Z,2.33
2022-09-23T09:50:01.819Z,1.43
2022-09-23T09:52:38.347Z,1.67
2022-09-23T09:55:25.862Z,1.40
2022-09-23T09:58:03.044Z,1.90
2022-09-23T10:00:31.298Z,1.77
2022-09-23T10:03:27.812Z,1.80
2022-09-23T10:05:59.853Z,1.60
2022-09-23T10:08:37.296Z,1.80
2022-09-23T10:11:17.516Z,1.47
2022-09-23T10:14:11.019Z,1.50
2022-09-23T10:16:42.495Z,1.30
2022-09-23T10:19:28.787Z,1.40
2022-09-23T10:22:10.030Z,1.63
2022-09-23T10:24:42.325Z,1.80
2022-09-23T10:27:20.122Z,1.77
2022-09-23T10:29:54.561Z,2.10
2022-09-23T10:32:40.452Z,2.13
2022-09-23T10:35:17.194Z,1.70
2022-09-23T10:37:57.896Z,1.93
2022-09-23T10:40:57.239Z,1.77
2022-09-23T10:44:07.358Z,1.47
2022-09-23T10:46:43.520Z,1.50
2022-09-23T10:49:26.342Z,1.57
2022-09-23T10:52:17.282Z,1.50
2022-09-23T10:55:16.625Z,1.70
2022-09-23T10:58:09.568Z,1.50
2022-09-23T11:00:45.949Z,1.47
2022-09-23T11:03:32.378Z,1.58
2022-09-23T11:06:22.994Z,1.70
2022-09-23T11:09:12.223Z,1.40
2022-09-23T11:11:53.138Z,1.43
2022-09-23T11:14:30.583Z,1.30
2022-09-23T11:17:02.176Z,1.43
2022-09-23T11:19:45.693Z,1.50
2022-09-23T11:22:26.675Z,1.30
2022-09-23T11:25:11.977Z,1.50
2022-09-23T11:27:53.973Z,1.90
2022-09-23T11:33:30.669Z,1.17
2022-09-23T11:36:03.226Z,1.50
2022-09-23T11:39:07.048Z,1.73
2022-09-23T11:41:41.094Z,1.67
2022-09-23T11:44:25.867Z,1.40
2022-09-23T11:47:05.294Z,1.30
2022-09-23T11:49:43.154Z,1.30
2022-09-23T11:52:32.986Z,1.40
2022-09-23T11:55:29.808Z,1.23
2022-09-23T11:58:25.907Z,1.10
2022-09-23T12:01:11.860Z,1.20
2022-09-23T12:04:01.154Z,1.47
2022-09-23T12:06:52.181Z,1.13
2022-09-23T12:09:47.050Z,1.13
2022-09-23T12:12:27.414Z,1.10
2022-09-23T12:18:22.355Z,1.10
2022-09-23T12:24:30.133Z,1.30
2022-09-23T12:26:59.797Z,0.97
2022-09-23T12:29:34.577Z,1.00
2022-09-23T12:32:10.166Z,0.80
2022-09-23T12:34:49.338Z,1.07
2022-09-23T12:40:38.163Z,1.00
2022-09-23T12:43:13.224Z,1.27
2022-09-23T12:45:44.410Z,1.00
2022-09-23T12:48:25.539Z,1.00
2022-09-23T12:51:17.567Z,1.20
2022-09-23T12:54:07.425Z,1.40
2022-09-23T12:56:41.686Z,0.90
2022-09-23T12:59:21.321Z,1.13
2022-09-23T13:01:51.276Z,0.90
2022-09-23T13:04:49.997Z,0.90
2022-09-23T13:07:31.809Z,0.90
2022-09-23T13:10:12.566Z,1.20
2022-09-23T13:15:34.946Z,0.90
2022-09-23T13:18:20.801Z,0.90
2022-09-23T13:20:52.871Z,0.90
2022-09-23T13:23:33.490Z,1.03
2022-09-23T13:26:14.370Z,0.80
2022-09-23T13:28:55.716Z,1.03
2022-09-23T13:31:28.330Z,1.23
2022-09-23T13:34:00.669Z,1.10
2022-09-23T13:36:34.967Z,1.00
2022-09-23T13:39:15.897Z,1.20
2022-09-23T13:41:48.400Z,1.00
2022-09-23T13:44:24.160Z,0.60
2022-09-23T13:46:59.427Z,0.90
2022-09-23T13:49:33.322Z,1.40
2022-09-23T13:52:02.435Z,1.10
2022-09-23T13:54:56.203Z,1.00
2022-09-23T13:57:37.736Z,1.10
2022-09-23T14:00:24.345Z,0.93
2022-09-23T14:02:54.498Z,0.80
2022-09-23T14:05:40.773Z,1.03
2022-09-23T14:08:09.596Z,0.80
2022-09-23T14:10:48.982Z,1.30
2022-09-23T14:13:30.749Z,0.93
2022-09-23T14:16:00.387Z,1.00
2022-09-23T14:18:35.154Z,0.90
2022-09-23T14:21:06.024Z,0.97
2022-09-23T14:23:35.230Z,1.00
2022-09-23T14:26:04.290Z,1.00
2022-09-23T14:28:39.092Z,1.03
2022-09-23T14:31:10.437Z,0.90
2022-09-23T14:33:41.789Z,1.10
2022-09-23T14:36:37.569Z,0.87
2022-09-23T14:39:12.339Z,0.70
2022-09-23T14:41:46.366Z,0.90
2022-09-23T14:44:25.015Z,0.90
2022-09-23T14:47:12.919Z,1.10
2022-09-23T14:50:03.811Z,1.10
2022-09-23T14:52:36.496Z,0.97
2022-09-23T14:55:05.779Z,1.00
2022-09-23T14:57:36.271Z,1.03
2022-09-23T15:00:22.473Z,0.93
2022-09-23T15:05:53.170Z,1.30
2022-09-23T15:08:31.817Z,1.13
2022-09-23T15:11:07.006Z,1.17
2022-09-23T15:13:42.419Z,0.87
2022-09-23T15:16:15.660Z,1.00
2022-09-23T15:18:49.019Z,0.83
2022-09-23T15:21:21.154Z,1.17
2022-09-23T15:24:00.261Z,1.30
2022-09-23T15:26:52.455Z,1.30
2022-09-23T15:29:26.687Z,1.30
2022-09-23T15:31:59.517Z,1.30
2022-09-23T15:37:18.007Z,1.10
2022-09-23T15:39:50.597Z,1.20
2022-09-23T15:42:20.764Z,1.33
2022-09-23T15:44:50.960Z,1.13
2022-09-23T15:47:21.600Z,1.50
2022-09-23T15:52:36.753Z,1.33
2022-09-23T15:55:11.171Z,1.23
2022-09-23T15:57:42.025Z,1.10
2022-09-23T16:00:17.025Z,1.30
2022-09-23T16:02:47.064Z,1.20
2022-09-23T16:05:35.921Z,1.40
2022-09-23T16:08:09.230Z,1.20
2022-09-23T16:10:41.613Z,1.27
2022-09-23T16:13:13.221Z,1.13
2022-09-23T16:15:45.642Z,1.40
2022-09-23T16:18:17.392Z,1.07
2022-09-23T16:20:50.500Z,1.20
2022-09-23T16:23:36.928Z,1.37
2022-09-23T16:26:17.930Z,1.03
2022-09-23T16:28:48.407Z,1.20
2022-09-23T16:31:20.953Z,1.30
2022-09-23T16:33:54.710Z,1.20
2022-09-23T16:36:43.711Z,1.30
2022-09-23T16:39:14.246Z,1.27
2022-09-23T16:41:49.959Z,1.57
2022-09-23T16:44:23.716Z,1.20
2022-09-23T16:46:56.332Z,1.23
2022-09-23T16:49:25.549Z,1.50
2022-09-23T16:51:55.254Z,1.23
2022-09-23T16:54:29.479Z,1.50
2022-09-23T16:57:03.424Z,1.37
2022-09-23T16:59:54.678Z,1.53
2022-09-23T17:02:44.111Z,1.33
2022-09-23T17:05:17.796Z,1.60
2022-09-23T17:07:51.897Z,1.60
2022-09-23T17:10:28.916Z,2.10
2022-09-23T17:13:03.638Z,1.83
2022-09-23T17:15:34.144Z,1.70
2022-09-23T17:18:04.631Z,1.77
2022-09-23T17:20:36.428Z,1.80
2022-09-23T17:23:06.203Z,2.10
2022-09-23T17:25:39.053Z,2.00
2022-09-23T17:28:10.905Z,2.10
2022-09-23T17:30:46.098Z,1.97
2022-09-23T17:33:20.061Z,1.90
2022-09-23T17:35:49.302Z,2.00
2022-09-23T17:38:26.700Z,2.07
2022-09-23T17:41:05.814Z,2.10
2022-09-23T17:43:36.025Z,2.33
2022-09-23T17:46:20.824Z,2.03
2022-09-23T17:49:05.739Z,1.93
2022-09-23T17:51:41.283Z,2.00
2022-09-23T17:54:14.493Z,2.07
2022-09-23T17:56:47.045Z,1.83
2022-09-23T17:59:18.164Z,2.30
2022-09-23T18:01:50.052Z,2.30
2022-09-23T18:04:23.278Z,2.07
2022-09-23T18:06:59.108Z,1.93
2022-09-23T18:09:34.086Z,2.10
2022-09-23T18:12:15.705Z,2.17
2022-09-23T18:14:54.866Z,2.10
2022-09-23T18:17:29.093Z,1.93
2022-09-23T18:20:00.720Z,1.90
2022-09-23T18:22:38.428Z,2.17
2022-09-23T18:25:28.591Z,1.97
2022-09-23T18:27:55.894Z,2.30
2022-09-23T18:30:25.803Z,2.20
2022-09-23T18:32:58.056Z,2.10
2022-09-23T18:35:32.085Z,2.10
2022-09-23T18:38:01.900Z,1.70
2022-09-23T18:43:19.843Z,1.93
2022-09-23T18:49:04.311Z,2.00
2022-09-23T18:51:37.311Z,1.87
2022-09-23T18:54:07.838Z,2.10
2022-09-23T18:56:44.459Z,2.47
2022-09-23T18:59:20.050Z,2.07
2022-09-23T19:01:50.767Z,2.10
2022-09-23T19:04:23.133Z,2.00
2022-09-23T19:06:53.592Z,2.20
2022-09-23T19:09:24.660Z,1.80
2022-09-23T19:14:42.277Z,2.20
2022-09-23T19:17:14.162Z,2.13
2022-09-23T19:19:45.248Z,2.20
2022-09-23T19:22:19.119Z,2.10
2022-09-23T19:24:48.610Z,2.30
2022-09-23T19:27:18.224Z,2.30
2022-09-23T19:29:47.978Z,2.23
2022-09-23T19:32:18.146Z,2.60
2022-09-23T19:34:50.439Z,2.00
2022-09-23T19:37:23.665Z,2.43
2022-09-23T19:39:56.356Z,2.00
2022-09-23T19:42:30.572Z,2.30
2022-09-23T19:45:03.435Z,2.20
2022-09-23T19:47:34.484Z,2.43
2022-09-23T19:50:04.224Z,2.37
2022-09-23T19:52:39.959Z,2.20
2022-09-23T19:55:11.558Z,2.30
2022-09-23T19:57:41.115Z,2.43
2022-09-23T20:00:13.799Z,2.40
2022-09-23T20:02:43.897Z,2.60
2022-09-23T20:05:13.868Z,2.37
2022-09-23T20:07:48.959Z,2.63
2022-09-23T20:10:22.855Z,2.60
2022-09-23T20:12:52.564Z,2.93
2022-09-23T20:15:23.492Z,2.67
2022-09-23T20:17:59.567Z,2.40
2022-09-23T20:20:28.021Z,2.50
2022-09-23T20:22:56.343Z,2.67
2022-09-23T20:25:31.044Z,2.60
2022-09-23T20:30:46.433Z,2.87
2022-09-23T20:33:16.410Z,2.87
2022-09-23T20:35:55.991Z,2.70
2022-09-23T20:38:28.556Z,2.80
2022-09-23T20:40:57.620Z,2.83
2022-09-23T20:43:31.787Z,3.03
2022-09-23T20:46:01.139Z,2.97
2022-09-23T20:48:36.563Z,2.90
2022-09-23T20:51:08.958Z,3.00
2022-09-23T20:53:39.309Z,2.73
2022-09-23T20:56:11.121Z,3.03
2022-09-23T20:58:44.707Z,2.70
2022-09-23T21:01:18.439Z,2.67
2022-09-23T21:03:49.160Z,2.80
2022-09-23T21:06:20.366Z,2.93
2022-09-23T21:08:51.432Z,2.40
2022-09-23T21:11:27.364Z,2.80
2022-09-23T21:13:56.681Z,2.93
2022-09-23T21:16:27.063Z,2.90
2022-09-23T21:18:55.675Z,2.87
2022-09-23T21:21:27.198Z,3.03
2022-09-23T21:24:03.564Z,2.90
2022-09-23T21:26:43.066Z,3.23
2022-09-23T21:29:10.434Z,2.77
2022-09-23T21:31:43.128Z,2.63
2022-09-23T21:34:15.050Z,2.63
2022-09-23T21:36:47.534Z,3.60
2022-09-23T21:39:19.347Z,3.23
2022-09-23T21:41:46.755Z,3.17
2022-09-23T21:44:18.605Z,3.07
2022-09-23T21:46:49.733Z,3.00
2022-09-23T21:49:23.013Z,3.10
2022-09-23T21:51:58.294Z,2.73
2022-09-23T21:54:29.721Z,2.93
2022-09-23T21:57:00.557Z,3.10
2022-09-23T21:59:33.043Z,3.03
2022-09-23T22:02:03.060Z,3.00
2022-09-23T22:04:35.333Z,3.07
2022-09-23T22:07:04.207Z,2.83
2022-09-23T22:09:36.139Z,2.80
2022-09-23T22:12:05.439Z,3.20
2022-09-23T22:14:35.754Z,3.20
2022-09-23T22:17:11.589Z,3.20
2022-09-23T22:19:46.716Z,3.37
2022-09-23T22:24:58.703Z,2.73
2022-09-23T22:27:32.742Z,3.03
2022-09-23T22:30:21.575Z,3.10
2022-09-23T22:32:55.106Z,3.10
2022-09-23T22:35:28.207Z,3.23
2022-09-23T22:38:04.962Z,3.03
2022-09-23T22:40:41.028Z,2.93
2022-09-23T22:43:12.845Z,3.43
2022-09-23T22:45:51.093Z,2.93
2022-09-23T22:48:21.244Z,3.23
2022-09-23T22:50:52.275Z,3.40
2022-09-23T22:53:23.369Z,3.60
2022-09-23T22:56:02.452Z,3.40
2022-09-23T22:58:33.193Z,3.10
2022-09-23T23:01:03.290Z,3.20
2022-09-23T23:03:41.040Z,3.40
2022-09-23T23:06:16.719Z,3.57
2022-09-23T23:08:45.546Z,3.03
2022-09-23T23:11:17.369Z,3.70
2022-09-23T23:16:30.357Z,3.60
2022-09-23T23:19:07.244Z,3.60
2022-09-23T23:21:38.012Z,3.43
2022-09-23T23:24:10.291Z,3.53
2022-09-23T23:26:40.903Z,4.27
2022-09-23T23:29:12.334Z,3.50
2022-09-23T23:31:46.306Z,3.50
2022-09-23T23:34:18.533Z,3.40
2022-09-23T23:36:55.948Z,3.80
2022-09-23T23:39:29.173Z,3.80
2022-09-23T23:42:01.461Z,3.23
2022-09-23T23:44:34.572Z,3.40
2022-09-23T23:49:51.212Z,3.43
2022-09-23T23:52:25.516Z,3.17
2022-09-23T23:54:57.259Z,4.00
2022-09-23T23:57:29.315Z,3.40
